Terminal Aerodrome Forecast
Issued by NWS St Louis, MO

Home | Current Version | Previous Version | Text Only | Print | Product List | Glossary On
Versions: 1 2 3 4 5 6 7 8 9 10 11 12 13 14 15 16 17 18 19 20 21 22 23 24 25 26 27 28 29 30 31 32
000
FTUS43 KLSX 020600 AAB
TAFSTL
TAF AMD
KSTL 020620Z 0206/0312 35008KT P6SM -SHRA BKN005
     FM021200 15007KT P6SM BKN040 OVC080
     FM022100 18010KT 5SM -SHRA VCTS BKN040CB
     FM030300 23007KT 5SM -SHRA VCTS BKN040CB
     FM030900 27007KT P6SM VCSH BKN040=

USA.gov is the U.S. government's official web portal to all federal, state and local government web resources and services.